sensor_id;sensor_type;location;lat;lon;timestamp;P1;durP1;ratioP1;P2;durP2;ratioP2
25868;SDS011;13688;53.154;18.136;2023-05-16T00:02:21;7.58;;;6.45;;
25868;SDS011;13688;53.154;18.136;2023-05-16T00:07:45;10.90;;;6.37;;
25868;SDS011;13688;53.154;18.136;2023-05-16T00:13:08;10.82;;;6.58;;
25868;SDS011;13688;53.154;18.136;2023-05-16T00:18:32;11.00;;;7.12;;
25868;SDS011;13688;53.154;18.136;2023-05-16T00:23:55;9.73;;;5.83;;
25868;SDS011;13688;53.154;18.136;2023-05-16T00:29:19;10.88;;;6.53;;
25868;SDS011;13688;53.154;18.136;2023-05-16T00:34:41;7.80;;;6.03;;
25868;SDS011;13688;53.154;18.136;2023-05-16T00:40:04;9.90;;;6.50;;
25868;SDS011;13688;53.154;18.136;2023-05-16T00:45:27;6.87;;;5.67;;
25868;SDS011;13688;53.154;18.136;2023-05-16T00:50:50;7.62;;;5.85;;
25868;SDS011;13688;53.154;18.136;2023-05-16T00:56:12;8.98;;;5.80;;
25868;SDS011;13688;53.154;18.136;2023-05-16T01:01:36;8.70;;;5.67;;
25868;SDS011;13688;53.154;18.136;2023-05-16T01:07:01;10.90;;;5.80;;
25868;SDS011;13688;53.154;18.136;2023-05-16T01:24:08;7.28;;;5.55;;
25868;SDS011;13688;53.154;18.136;2023-05-16T01:29:34;6.42;;;5.40;;
25868;SDS011;13688;53.154;18.136;2023-05-16T01:34:56;6.37;;;5.33;;
25868;SDS011;13688;53.154;18.136;2023-05-16T01:40:22;7.85;;;6.25;;
25868;SDS011;13688;53.154;18.136;2023-05-16T01:45:50;7.40;;;5.65;;
25868;SDS011;13688;53.154;18.136;2023-05-16T01:51:31;7.80;;;6.23;;
25868;SDS011;13688;53.154;18.136;2023-05-16T01:56:57;7.20;;;5.73;;
25868;SDS011;13688;53.154;18.136;2023-05-16T02:02:23;6.57;;;5.17;;
25868;SDS011;13688;53.154;18.136;2023-05-16T02:07:46;6.60;;;5.07;;
25868;SDS011;13688;53.154;18.136;2023-05-16T02:13:09;7.93;;;5.37;;
25868;SDS011;13688;53.154;18.136;2023-05-16T02:18:32;7.60;;;4.90;;
25868;SDS011;13688;53.154;18.136;2023-05-16T02:23:54;8.60;;;5.17;;
25868;SDS011;13688;53.154;18.136;2023-05-16T02:29:17;4.83;;;4.23;;
25868;SDS011;13688;53.154;18.136;2023-05-16T02:34:39;6.90;;;3.87;;
25868;SDS011;13688;53.154;18.136;2023-05-16T02:51:49;3.40;;;3.02;;
25868;SDS011;13688;53.154;18.136;2023-05-16T02:57:12;3.80;;;3.15;;
25868;SDS011;13688;53.154;18.136;2023-05-16T03:02:34;3.00;;;2.70;;
25868;SDS011;13688;53.154;18.136;2023-05-16T03:07:57;2.98;;;2.55;;
25868;SDS011;13688;53.154;18.136;2023-05-16T03:13:19;3.58;;;2.42;;
25868;SDS011;13688;53.154;18.136;2023-05-16T03:18:42;2.72;;;2.15;;
25868;SDS011;13688;53.154;18.136;2023-05-16T03:24:05;3.87;;;2.47;;
25868;SDS011;13688;53.154;18.136;2023-05-16T03:29:28;3.70;;;1.85;;
25868;SDS011;13688;53.154;18.136;2023-05-16T03:34:51;3.15;;;2.12;;
25868;SDS011;13688;53.154;18.136;2023-05-16T03:40:14;2.07;;;1.87;;
25868;SDS011;13688;53.154;18.136;2023-05-16T03:45:36;5.00;;;2.43;;
25868;SDS011;13688;53.154;18.136;2023-05-16T03:50:59;4.00;;;2.35;;
25868;SDS011;13688;53.154;18.136;2023-05-16T03:56:21;3.90;;;2.15;;
25868;SDS011;13688;53.154;18.136;2023-05-16T04:01:44;3.05;;;2.15;;
25868;SDS011;13688;53.154;18.136;2023-05-16T04:07:06;2.80;;;1.80;;
25868;SDS011;13688;53.154;18.136;2023-05-16T04:12:30;4.37;;;2.13;;
25868;SDS011;13688;53.154;18.136;2023-05-16T04:17:52;3.15;;;1.75;;
25868;SDS011;13688;53.154;18.136;2023-05-16T04:23:15;2.50;;;1.80;;
25868;SDS011;13688;53.154;18.136;2023-05-16T04:28:37;4.03;;;1.60;;
25868;SDS011;13688;53.154;18.136;2023-05-16T04:34:02;2.00;;;1.70;;
25868;SDS011;13688;53.154;18.136;2023-05-16T04:39:26;2.40;;;1.70;;
25868;SDS011;13688;53.154;18.136;2023-05-16T04:44:50;1.97;;;1.47;;
25868;SDS011;13688;53.154;18.136;2023-05-16T04:50:14;2.17;;;1.67;;
25868;SDS011;13688;53.154;18.136;2023-05-16T04:55:37;1.75;;;1.50;;
25868;SDS011;13688;53.154;18.136;2023-05-16T05:00:59;1.97;;;1.73;;
25868;SDS011;13688;53.154;18.136;2023-05-16T05:06:21;2.02;;;1.70;;
25868;SDS011;13688;53.154;18.136;2023-05-16T05:11:44;4.40;;;1.85;;
25868;SDS011;13688;53.154;18.136;2023-05-16T05:17:06;3.52;;;2.12;;
25868;SDS011;13688;53.154;18.136;2023-05-16T05:22:29;2.45;;;1.90;;
25868;SDS011;13688;53.154;18.136;2023-05-16T05:27:52;2.58;;;2.10;;
25868;SDS011;13688;53.154;18.136;2023-05-16T05:33:16;6.10;;;2.12;;
25868;SDS011;13688;53.154;18.136;2023-05-16T05:38:39;3.47;;;2.05;;
25868;SDS011;13688;53.154;18.136;2023-05-16T05:44:02;3.63;;;2.33;;
25868;SDS011;13688;53.154;18.136;2023-05-16T05:49:24;3.60;;;2.77;;
25868;SDS011;13688;53.154;18.136;2023-05-16T05:54:48;2.80;;;2.15;;
25868;SDS011;13688;53.154;18.136;2023-05-16T06:00:10;4.05;;;2.58;;
25868;SDS011;13688;53.154;18.136;2023-05-16T06:05:33;3.77;;;2.52;;
25868;SDS011;13688;53.154;18.136;2023-05-16T06:10:55;4.63;;;2.30;;
25868;SDS011;13688;53.154;18.136;2023-05-16T06:16:18;2.40;;;2.20;;
25868;SDS011;13688;53.154;18.136;2023-05-16T06:21:43;3.42;;;2.45;;
25868;SDS011;13688;53.154;18.136;2023-05-16T06:27:05;8.87;;;3.07;;
25868;SDS011;13688;53.154;18.136;2023-05-16T06:32:28;6.37;;;2.50;;
25868;SDS011;13688;53.154;18.136;2023-05-16T06:37:50;6.83;;;2.47;;
25868;SDS011;13688;53.154;18.136;2023-05-16T06:43:13;3.85;;;2.80;;
25868;SDS011;13688;53.154;18.136;2023-05-16T06:48:35;3.98;;;2.92;;
25868;SDS011;13688;53.154;18.136;2023-05-16T06:53:57;3.10;;;2.80;;
25868;SDS011;13688;53.154;18.136;2023-05-16T06:59:20;3.92;;;3.10;;
25868;SDS011;13688;53.154;18.136;2023-05-16T07:04:42;4.00;;;2.87;;
25868;SDS011;13688;53.154;18.136;2023-05-16T07:10:05;6.30;;;2.83;;
25868;SDS011;13688;53.154;18.136;2023-05-16T07:15:28;4.78;;;3.15;;
25868;SDS011;13688;53.154;18.136;2023-05-16T07:20:50;5.37;;;3.37;;
25868;SDS011;13688;53.154;18.136;2023-05-16T07:26:14;7.77;;;3.27;;
25868;SDS011;13688;53.154;18.136;2023-05-16T07:31:36;4.40;;;3.52;;
25868;SDS011;13688;53.154;18.136;2023-05-16T07:36:59;5.47;;;3.12;;
25868;SDS011;13688;53.154;18.136;2023-05-16T07:42:23;6.27;;;3.53;;
25868;SDS011;13688;53.154;18.136;2023-05-16T07:47:47;4.95;;;3.27;;
25868;SDS011;13688;53.154;18.136;2023-05-16T07:53:09;4.50;;;3.37;;
25868;SDS011;13688;53.154;18.136;2023-05-16T07:58:32;5.70;;;3.13;;
25868;SDS011;13688;53.154;18.136;2023-05-16T08:03:54;4.22;;;3.20;;
25868;SDS011;13688;53.154;18.136;2023-05-16T08:09:18;4.03;;;3.33;;
25868;SDS011;13688;53.154;18.136;2023-05-16T08:14:40;7.97;;;3.10;;
25868;SDS011;13688;53.154;18.136;2023-05-16T08:20:03;4.63;;;3.13;;
25868;SDS011;13688;53.154;18.136;2023-05-16T08:25:26;5.05;;;2.98;;
25868;SDS011;13688;53.154;18.136;2023-05-16T08:30:49;3.97;;;3.10;;
25868;SDS011;13688;53.154;18.136;2023-05-16T08:36:11;4.40;;;2.70;;
25868;SDS011;13688;53.154;18.136;2023-05-16T08:41:34;8.05;;;2.72;;
25868;SDS011;13688;53.154;18.136;2023-05-16T08:46:57;3.08;;;2.50;;
25868;SDS011;13688;53.154;18.136;2023-05-16T08:52:29;4.73;;;2.83;;
25868;SDS011;13688;53.154;18.136;2023-05-16T08:57:53;5.62;;;3.20;;
25868;SDS011;13688;53.154;18.136;2023-05-16T09:03:17;3.17;;;2.67;;
25868;SDS011;13688;53.154;18.136;2023-05-16T09:08:40;6.10;;;2.70;;
25868;SDS011;13688;53.154;18.136;2023-05-16T09:14:03;4.37;;;2.60;;
25868;SDS011;13688;53.154;18.136;2023-05-16T09:19:26;3.77;;;2.80;;
25868;SDS011;13688;53.154;18.136;2023-05-16T09:24:56;3.00;;;2.57;;
25868;SDS011;13688;53.154;18.136;2023-05-16T09:30:28;3.93;;;2.50;;
25868;SDS011;13688;53.154;18.136;2023-05-16T09:35:56;3.17;;;2.40;;
25868;SDS011;13688;53.154;18.136;2023-05-16T09:41:20;3.08;;;2.25;;
25868;SDS011;13688;53.154;18.136;2023-05-16T09:46:44;2.70;;;2.17;;
25868;SDS011;13688;53.154;18.136;2023-05-16T09:52:08;4.33;;;2.30;;
25868;SDS011;13688;53.154;18.136;2023-05-16T09:57:31;4.97;;;2.40;;
25868;SDS011;13688;53.154;18.136;2023-05-16T10:02:54;4.15;;;2.55;;
25868;SDS011;13688;53.154;18.136;2023-05-16T10:08:22;3.22;;;2.15;;
25868;SDS011;13688;53.154;18.136;2023-05-16T10:13:47;2.72;;;2.10;;
25868;SDS011;13688;53.154;18.136;2023-05-16T10:19:11;3.90;;;2.30;;
25868;SDS011;13688;53.154;18.136;2023-05-16T10:24:38;2.97;;;1.97;;
25868;SDS011;13688;53.154;18.136;2023-05-16T10:30:06;3.75;;;1.90;;
25868;SDS011;13688;53.154;18.136;2023-05-16T10:35:30;3.17;;;2.10;;
25868;SDS011;13688;53.154;18.136;2023-05-16T10:40:53;2.97;;;1.90;;
25868;SDS011;13688;53.154;18.136;2023-05-16T10:46:17;4.50;;;2.20;;
25868;SDS011;13688;53.154;18.136;2023-05-16T10:51:41;2.77;;;2.20;;
25868;SDS011;13688;53.154;18.136;2023-05-16T10:57:22;3.20;;;2.20;;
25868;SDS011;13688;53.154;18.136;2023-05-16T11:02:46;7.33;;;2.37;;
25868;SDS011;13688;53.154;18.136;2023-05-16T11:08:14;4.35;;;2.25;;
25868;SDS011;13688;53.154;18.136;2023-05-16T11:13:36;2.45;;;2.25;;
25868;SDS011;13688;53.154;18.136;2023-05-16T11:19:13;4.83;;;2.62;;
25868;SDS011;13688;53.154;18.136;2023-05-16T11:25:11;2.77;;;2.27;;
25868;SDS011;13688;53.154;18.136;2023-05-16T11:30:40;3.30;;;2.70;;
25868;SDS011;13688;53.154;18.136;2023-05-16T11:36:06;6.10;;;2.50;;
25868;SDS011;13688;53.154;18.136;2023-05-16T11:41:31;4.27;;;2.63;;
25868;SDS011;13688;53.154;18.136;2023-05-16T11:46:55;2.83;;;2.50;;
25868;SDS011;13688;53.154;18.136;2023-05-16T11:52:18;5.83;;;2.90;;
25868;SDS011;13688;53.154;18.136;2023-05-16T11:57:43;4.97;;;2.50;;
25868;SDS011;13688;53.154;18.136;2023-05-16T12:03:08;3.00;;;2.22;;
25868;SDS011;13688;53.154;18.136;2023-05-16T12:08:31;3.03;;;2.73;;
25868;SDS011;13688;53.154;18.136;2023-05-16T12:14:00;4.43;;;2.80;;
25868;SDS011;13688;53.154;18.136;2023-05-16T12:19:24;3.25;;;2.70;;
25868;SDS011;13688;53.154;18.136;2023-05-16T12:24:48;3.33;;;2.50;;
25868;SDS011;13688;53.154;18.136;2023-05-16T12:30:31;3.17;;;2.80;;
25868;SDS011;13688;53.154;18.136;2023-05-16T12:35:55;6.87;;;3.02;;
25868;SDS011;13688;53.154;18.136;2023-05-16T12:41:22;4.60;;;3.07;;
25868;SDS011;13688;53.154;18.136;2023-05-16T12:46:50;4.50;;;2.97;;
25868;SDS011;13688;53.154;18.136;2023-05-16T12:52:17;5.60;;;2.85;;
25868;SDS011;13688;53.154;18.136;2023-05-16T12:57:40;3.90;;;3.20;;
25868;SDS011;13688;53.154;18.136;2023-05-16T13:03:05;5.97;;;3.87;;
25868;SDS011;13688;53.154;18.136;2023-05-16T13:08:29;5.05;;;3.05;;
25868;SDS011;13688;53.154;18.136;2023-05-16T13:13:51;4.35;;;2.58;;
25868;SDS011;13688;53.154;18.136;2023-05-16T13:19:14;9.13;;;3.52;;
25868;SDS011;13688;53.154;18.136;2023-05-16T13:24:37;9.70;;;4.37;;
25868;SDS011;13688;53.154;18.136;2023-05-16T13:29:59;12.13;;;5.03;;
25868;SDS011;13688;53.154;18.136;2023-05-16T13:35:22;6.53;;;5.53;;
25868;SDS011;13688;53.154;18.136;2023-05-16T13:40:45;8.13;;;5.72;;
25868;SDS011;13688;53.154;18.136;2023-05-16T13:46:08;10.33;;;6.87;;
25868;SDS011;13688;53.154;18.136;2023-05-16T13:51:32;9.20;;;5.72;;
25868;SDS011;13688;53.154;18.136;2023-05-16T13:56:54;6.73;;;5.77;;
25868;SDS011;13688;53.154;18.136;2023-05-16T14:02:17;11.63;;;6.92;;
25868;SDS011;13688;53.154;18.136;2023-05-16T14:07:40;8.30;;;6.10;;
25868;SDS011;13688;53.154;18.136;2023-05-16T14:13:03;10.67;;;7.40;;
25868;SDS011;13688;53.154;18.136;2023-05-16T14:18:27;6.83;;;6.10;;
25868;SDS011;13688;53.154;18.136;2023-05-16T14:23:49;7.67;;;6.50;;
25868;SDS011;13688;53.154;18.136;2023-05-16T14:29:14;7.15;;;6.10;;
25868;SDS011;13688;53.154;18.136;2023-05-16T14:34:41;9.33;;;6.45;;
25868;SDS011;13688;53.154;18.136;2023-05-16T14:40:03;7.25;;;5.87;;
25868;SDS011;13688;53.154;18.136;2023-05-16T14:45:27;7.60;;;5.80;;
25868;SDS011;13688;53.154;18.136;2023-05-16T14:50:54;7.75;;;5.95;;
25868;SDS011;13688;53.154;18.136;2023-05-16T14:56:17;8.18;;;6.47;;
25868;SDS011;13688;53.154;18.136;2023-05-16T15:01:39;8.50;;;5.50;;
25868;SDS011;13688;53.154;18.136;2023-05-16T15:07:02;9.45;;;6.12;;
25868;SDS011;13688;53.154;18.136;2023-05-16T15:12:25;8.85;;;6.30;;
25868;SDS011;13688;53.154;18.136;2023-05-16T15:17:48;10.75;;;7.70;;
25868;SDS011;13688;53.154;18.136;2023-05-16T15:23:11;10.00;;;7.53;;
25868;SDS011;13688;53.154;18.136;2023-05-16T15:28:34;9.83;;;7.63;;
25868;SDS011;13688;53.154;18.136;2023-05-16T15:33:58;11.47;;;7.80;;
25868;SDS011;13688;53.154;18.136;2023-05-16T15:39:20;12.58;;;8.00;;
25868;SDS011;13688;53.154;18.136;2023-05-16T15:44:42;12.53;;;8.73;;
25868;SDS011;13688;53.154;18.136;2023-05-16T15:50:05;13.17;;;9.53;;
25868;SDS011;13688;53.154;18.136;2023-05-16T15:55:29;13.03;;;8.60;;
25868;SDS011;13688;53.154;18.136;2023-05-16T16:00:52;12.73;;;9.23;;
25868;SDS011;13688;53.154;18.136;2023-05-16T16:06:15;12.58;;;10.35;;
25868;SDS011;13688;53.154;18.136;2023-05-16T16:11:38;15.50;;;11.05;;
25868;SDS011;13688;53.154;18.136;2023-05-16T16:17:00;13.72;;;10.10;;
25868;SDS011;13688;53.154;18.136;2023-05-16T16:22:23;14.58;;;9.88;;
25868;SDS011;13688;53.154;18.136;2023-05-16T16:27:46;12.43;;;10.03;;
25868;SDS011;13688;53.154;18.136;2023-05-16T16:33:10;11.78;;;8.55;;
25868;SDS011;13688;53.154;18.136;2023-05-16T16:38:34;12.07;;;8.73;;
25868;SDS011;13688;53.154;18.136;2023-05-16T16:43:56;11.97;;;8.23;;
25868;SDS011;13688;53.154;18.136;2023-05-16T16:49:19;13.65;;;8.83;;
25868;SDS011;13688;53.154;18.136;2023-05-16T16:54:43;12.58;;;9.83;;
25868;SDS011;13688;53.154;18.136;2023-05-16T17:00:07;11.12;;;9.25;;
25868;SDS011;13688;53.154;18.136;2023-05-16T17:05:30;13.43;;;9.63;;
25868;SDS011;13688;53.154;18.136;2023-05-16T17:10:53;11.63;;;9.73;;
25868;SDS011;13688;53.154;18.136;2023-05-16T17:16:17;14.40;;;8.38;;
25868;SDS011;13688;53.154;18.136;2023-05-16T17:21:41;9.35;;;7.30;;
25868;SDS011;13688;53.154;18.136;2023-05-16T17:27:03;9.43;;;7.53;;
25868;SDS011;13688;53.154;18.136;2023-05-16T17:32:27;9.78;;;6.92;;
25868;SDS011;13688;53.154;18.136;2023-05-16T17:37:50;12.68;;;8.05;;
25868;SDS011;13688;53.154;18.136;2023-05-16T17:43:14;11.57;;;8.13;;
25868;SDS011;13688;53.154;18.136;2023-05-16T17:48:38;12.30;;;8.88;;
25868;SDS011;13688;53.154;18.136;2023-05-16T17:54:00;13.57;;;8.97;;
25868;SDS011;13688;53.154;18.136;2023-05-16T17:59:24;14.35;;;8.85;;
25868;SDS011;13688;53.154;18.136;2023-05-16T18:04:47;12.28;;;8.05;;
25868;SDS011;13688;53.154;18.136;2023-05-16T18:10:10;15.45;;;8.58;;
25868;SDS011;13688;53.154;18.136;2023-05-16T18:15:35;19.07;;;9.35;;
25868;SDS011;13688;53.154;18.136;2023-05-16T18:20:57;13.48;;;8.90;;
25868;SDS011;13688;53.154;18.136;2023-05-16T18:26:20;17.67;;;8.95;;
25868;SDS011;13688;53.154;18.136;2023-05-16T18:31:43;16.55;;;8.60;;
25868;SDS011;13688;53.154;18.136;2023-05-16T18:37:06;10.70;;;7.80;;
25868;SDS011;13688;53.154;18.136;2023-05-16T18:42:29;18.10;;;8.35;;
25868;SDS011;13688;53.154;18.136;2023-05-16T18:47:52;12.33;;;7.72;;
25868;SDS011;13688;53.154;18.136;2023-05-16T18:53:15;14.47;;;7.42;;
25868;SDS011;13688;53.154;18.136;2023-05-16T18:58:39;13.15;;;7.25;;
25868;SDS011;13688;53.154;18.136;2023-05-16T19:04:01;17.32;;;8.33;;
25868;SDS011;13688;53.154;18.136;2023-05-16T19:09:25;14.10;;;8.13;;
25868;SDS011;13688;53.154;18.136;2023-05-16T19:14:49;12.40;;;7.87;;
25868;SDS011;13688;53.154;18.136;2023-05-16T19:20:12;14.87;;;7.33;;
25868;SDS011;13688;53.154;18.136;2023-05-16T19:25:34;14.87;;;7.50;;
25868;SDS011;13688;53.154;18.136;2023-05-16T19:30:57;13.50;;;7.63;;
25868;SDS011;13688;53.154;18.136;2023-05-16T19:36:20;11.20;;;6.40;;
25868;SDS011;13688;53.154;18.136;2023-05-16T19:41:43;12.73;;;6.20;;
25868;SDS011;13688;53.154;18.136;2023-05-16T19:47:07;13.40;;;6.85;;
25868;SDS011;13688;53.154;18.136;2023-05-16T19:52:31;13.38;;;6.62;;
25868;SDS011;13688;53.154;18.136;2023-05-16T19:57:54;16.13;;;6.20;;
25868;SDS011;13688;53.154;18.136;2023-05-16T20:03:16;14.20;;;6.37;;
25868;SDS011;13688;53.154;18.136;2023-05-16T20:08:39;14.37;;;5.40;;
25868;SDS011;13688;53.154;18.136;2023-05-16T20:14:01;12.57;;;5.93;;
25868;SDS011;13688;53.154;18.136;2023-05-16T20:24:39;10.87;;;5.00;;
25868;SDS011;13688;53.154;18.136;2023-05-16T20:30:02;12.87;;;4.60;;
25868;SDS011;13688;53.154;18.136;2023-05-16T20:35:25;13.23;;;4.80;;
25868;SDS011;13688;53.154;18.136;2023-05-16T20:40:47;16.40;;;5.33;;
25868;SDS011;13688;53.154;18.136;2023-05-16T20:46:10;13.23;;;5.33;;
25868;SDS011;13688;53.154;18.136;2023-05-16T20:51:32;12.47;;;5.40;;
25868;SDS011;13688;53.154;18.136;2023-05-16T20:56:55;13.78;;;5.20;;
25868;SDS011;13688;53.154;18.136;2023-05-16T21:02:19;17.53;;;5.90;;
25868;SDS011;13688;53.154;18.136;2023-05-16T21:07:42;11.13;;;4.37;;
25868;SDS011;13688;53.154;18.136;2023-05-16T21:13:04;14.63;;;5.10;;
25868;SDS011;13688;53.154;18.136;2023-05-16T21:18:27;10.70;;;4.70;;
25868;SDS011;13688;53.154;18.136;2023-05-16T21:23:51;13.10;;;4.90;;
25868;SDS011;13688;53.154;18.136;2023-05-16T21:29:14;12.17;;;4.93;;
25868;SDS011;13688;53.154;18.136;2023-05-16T21:34:36;9.90;;;4.83;;
25868;SDS011;13688;53.154;18.136;2023-05-16T21:39:58;9.33;;;4.47;;
25868;SDS011;13688;53.154;18.136;2023-05-16T21:45:23;13.93;;;6.00;;
25868;SDS011;13688;53.154;18.136;2023-05-16T21:50:46;16.90;;;6.17;;
25868;SDS011;13688;53.154;18.136;2023-05-16T21:56:08;17.55;;;5.37;;
25868;SDS011;13688;53.154;18.136;2023-05-16T22:01:30;12.40;;;5.80;;
25868;SDS011;13688;53.154;18.136;2023-05-16T22:06:53;10.05;;;4.78;;
25868;SDS011;13688;53.154;18.136;2023-05-16T22:12:16;14.73;;;4.97;;
25868;SDS011;13688;53.154;18.136;2023-05-16T22:17:38;14.70;;;5.03;;
25868;SDS011;13688;53.154;18.136;2023-05-16T22:23:01;8.70;;;4.43;;
25868;SDS011;13688;53.154;18.136;2023-05-16T22:28:23;10.27;;;4.80;;
25868;SDS011;13688;53.154;18.136;2023-05-16T22:33:45;11.80;;;4.37;;
25868;SDS011;13688;53.154;18.136;2023-05-16T22:39:08;10.10;;;4.73;;
25868;SDS011;13688;53.154;18.136;2023-05-16T22:44:30;12.60;;;4.20;;
25868;SDS011;13688;53.154;18.136;2023-05-16T22:49:53;14.93;;;4.83;;
25868;SDS011;13688;53.154;18.136;2023-05-16T22:55:15;12.50;;;4.83;;
25868;SDS011;13688;53.154;18.136;2023-05-16T23:00:39;15.10;;;5.08;;
25868;SDS011;13688;53.154;18.136;2023-05-16T23:06:02;16.73;;;5.20;;
25868;SDS011;13688;53.154;18.136;2023-05-16T23:11:24;10.83;;;5.67;;
25868;SDS011;13688;53.154;18.136;2023-05-16T23:16:47;14.80;;;4.87;;
25868;SDS011;13688;53.154;18.136;2023-05-16T23:22:09;14.87;;;5.77;;
25868;SDS011;13688;53.154;18.136;2023-05-16T23:27:32;12.28;;;5.35;;
25868;SDS011;13688;53.154;18.136;2023-05-16T23:32:54;14.77;;;5.07;;
25868;SDS011;13688;53.154;18.136;2023-05-16T23:38:17;17.48;;;5.33;;
25868;SDS011;13688;53.154;18.136;2023-05-16T23:43:39;11.73;;;6.47;;
25868;SDS011;13688;53.154;18.136;2023-05-16T23:49:01;14.75;;;6.90;;
25868;SDS011;13688;53.154;18.136;2023-05-16T23:54:24;12.47;;;6.10;;
25868;SDS011;13688;53.154;18.136;2023-05-16T23:59:50;18.60;;;6.53;;
